Home > Products > Valid Products > TAF

000
FTUS43 KIWX 271720
TAFFWA
TAF
KFWA 271720Z 2718/2818 21008KT P6SM BKN100
     FM272200 18008KT P6SM BKN250=



000
FTUS43 KIWX 271120
TAFFWA
TAF
KFWA 271120Z 2712/2812 21006KT P6SM BKN250
     FM271500 22012KT P6SM SCT035 BKN100
     FM271700 21012G18KT P6SM VCSH SCT050 BKN150
     FM280300 19006KT P6SM BKN150=



000
FTUS43 KIWX 262336
TAFFWA
TAF
KFWA 262336Z 2700/2724 23010KT P6SM SCT045 BKN250
     FM270100 20006KT P6SM SCT020
      TEMPO 2710/2714 5SM BR BKN020
     FM271500 22012KT P6SM SCT035 BKN100
     FM271700 21012G18KT P6SM VCSH SCT050 BKN150=



000
FTUS43 KIWX 260522
TAFFWA
TAF
KFWA 260522Z 2606/2706 22007KT P6SM SCT070
     FM261000 18007KT 4SM BR SCT015 BKN070
     FM261300 21010KT P6SM SCT040=



000
FTUS43 KIWX 251121
TAFFWA
TAF
KFWA 251121Z 2512/2612 17004KT P6SM BKN200
     FM251600 20008KT P6SM SCT080
     FM260000 19006KT P6SM VCSH SCT250
     FM260800 20004KT P6SM VCTS BKN090CB=



000
FTUS43 KIWX 250540
TAFFWA
TAF
KFWA 250540Z 2506/2606 20005KT P6SM FEW250
     FM260200 18007KT P6SM SCT250=



000
FTUS43 KIWX 242337
TAFFWA
TAF
KFWA 242337Z 2500/2524 20009KT P6SM FEW250
     FM250100 21004KT P6SM SCT250
     FM251400 20008KT P6SM FEW050 SCT150=



    US Dept of Commerce
    National Oceanic and Atmospheric Administration
    National Weather Service
    1325 East West Highway
    Silver Spring, MD 20910
    Page Author: NWS Internet Services Team
Disclaimer
Information Quality
Credits
Glossary
Privacy Policy
Freedom of Information Act (FOIA)
About Us
Career Opportunities